createdAt,value
2023-04-10T00:02:22.712Z,2.30
2023-04-10T00:05:10.875Z,2.40
2023-04-10T00:08:00.945Z,2.33
2023-04-10T00:10:47.774Z,2.80
2023-04-10T00:13:36.460Z,2.70
2023-04-10T00:16:23.429Z,2.40
2023-04-10T00:19:10.626Z,3.33
2023-04-10T00:21:59.148Z,3.00
2023-04-10T00:24:46.111Z,3.37
2023-04-10T00:27:33.087Z,2.67
2023-04-10T00:30:21.177Z,2.13
2023-04-10T00:33:08.552Z,2.77
2023-04-10T00:35:55.566Z,2.40
2023-04-10T00:38:42.744Z,3.07
2023-04-10T00:41:29.530Z,2.77
2023-04-10T00:44:16.609Z,3.03
2023-04-10T00:47:06.059Z,3.50
2023-04-10T00:49:53.026Z,3.13
2023-04-10T00:52:40.156Z,2.23
2023-04-10T00:55:27.627Z,2.87
2023-04-10T00:58:14.830Z,2.57
2023-04-10T01:01:02.133Z,3.40
2023-04-10T01:03:51.652Z,2.87
2023-04-10T01:06:54.696Z,2.40
2023-04-10T01:09:54.174Z,2.93
2023-04-10T01:12:55.141Z,2.57
2023-04-10T01:15:49.241Z,3.90
2023-04-10T01:18:43.167Z,2.90
2023-04-10T01:21:33.905Z,2.20
2023-04-10T01:24:34.263Z,2.87
2023-04-10T01:27:38.094Z,2.60
2023-04-10T01:30:27.431Z,3.63
2023-04-10T01:33:17.765Z,2.77
2023-04-10T01:36:07.588Z,3.03
2023-04-10T01:38:56.212Z,3.07
2023-04-10T01:41:45.347Z,2.30
2023-04-10T01:44:33.797Z,2.97
2023-04-10T01:47:23.851Z,3.67
2023-04-10T01:50:12.311Z,2.70
2023-04-10T01:53:00.565Z,3.67
2023-04-10T01:55:48.311Z,3.10
2023-04-10T01:58:35.742Z,3.77
2023-04-10T02:01:29.745Z,2.83
2023-04-10T02:04:19.290Z,2.80
2023-04-10T02:07:10.403Z,2.70
2023-04-10T02:10:03.664Z,3.17
2023-04-10T02:12:56.588Z,3.00
2023-04-10T02:15:47.540Z,2.50
2023-04-10T02:18:36.299Z,2.60
2023-04-10T02:21:24.807Z,3.90
2023-04-10T02:24:12.307Z,3.17
2023-04-10T02:26:59.065Z,3.10
2023-04-10T02:29:46.204Z,2.80
2023-04-10T02:32:34.187Z,2.70
2023-04-10T02:35:20.998Z,3.27
2023-04-10T02:38:09.420Z,3.40
2023-04-10T02:40:56.652Z,3.53
2023-04-10T02:43:43.874Z,3.10
2023-04-10T02:46:30.976Z,2.90
2023-04-10T02:49:18.238Z,2.63
2023-04-10T02:52:05.519Z,2.97
2023-04-10T02:54:54.208Z,2.33
2023-04-10T02:57:41.589Z,3.63
2023-04-10T03:00:31.730Z,3.63
2023-04-10T03:03:19.971Z,3.03
2023-04-10T03:06:08.654Z,3.07
2023-04-10T03:08:56.279Z,3.70
2023-04-10T03:11:45.068Z,3.07
2023-04-10T03:14:31.961Z,3.47
2023-04-10T03:17:18.951Z,4.10
2023-04-10T03:20:06.757Z,3.00
2023-04-10T03:22:53.671Z,3.43
2023-04-10T03:25:44.016Z,3.70
2023-04-10T03:28:33.047Z,4.27
2023-04-10T03:31:20.135Z,4.00
2023-04-10T03:34:06.983Z,3.90
2023-04-10T03:36:54.100Z,4.10
2023-04-10T03:39:41.246Z,3.57
2023-04-10T03:42:28.352Z,3.50
2023-04-10T03:45:16.697Z,3.00
2023-04-10T03:48:03.893Z,3.47
2023-04-10T03:50:50.999Z,2.97
2023-04-10T03:53:37.959Z,2.63
2023-04-10T03:56:24.955Z,2.37
2023-04-10T03:59:12.088Z,2.97
2023-04-10T04:02:00.563Z,2.27
2023-04-10T04:04:47.851Z,2.97
2023-04-10T04:07:34.989Z,3.40
2023-04-10T04:10:21.971Z,2.57
2023-04-10T04:13:09.494Z,3.40
2023-04-10T04:15:56.713Z,2.30
2023-04-10T04:18:44.915Z,2.93
2023-04-10T04:21:32.623Z,2.27
2023-04-10T04:24:19.476Z,3.10
2023-04-10T04:27:06.488Z,2.37
2023-04-10T04:29:53.518Z,2.30
2023-04-10T04:32:40.875Z,3.00
2023-04-10T04:35:29.359Z,2.60
2023-04-10T04:38:16.979Z,2.37
2023-04-10T04:41:03.822Z,2.67
2023-04-10T04:43:53.645Z,2.57
2023-04-10T04:46:43.260Z,2.57
2023-04-10T04:49:31.894Z,3.10
2023-04-10T04:52:20.205Z,2.43
2023-04-10T04:55:08.679Z,2.33
2023-04-10T04:57:55.761Z,2.90
2023-04-10T05:00:42.992Z,2.83
2023-04-10T05:03:30.349Z,2.27
2023-04-10T05:06:18.875Z,2.87
2023-04-10T05:09:07.338Z,3.53
2023-04-10T05:11:54.766Z,2.93
2023-04-10T05:14:42.160Z,3.10
2023-04-10T05:17:29.454Z,3.07
2023-04-10T05:20:16.628Z,3.20
2023-04-10T05:23:03.994Z,3.30
2023-04-10T05:25:52.594Z,3.33
2023-04-10T05:28:39.837Z,4.40
2023-04-10T05:31:27.123Z,4.63
2023-04-10T05:34:14.036Z,3.47
2023-04-10T05:37:01.282Z,3.47
2023-04-10T05:39:48.193Z,3.37
2023-04-10T05:42:36.426Z,3.37
2023-04-10T05:45:23.629Z,3.23
2023-04-10T05:48:13.697Z,3.30
2023-04-10T05:51:00.808Z,3.93
2023-04-10T05:53:48.052Z,3.10
2023-04-10T05:56:35.206Z,3.97
2023-04-10T05:59:23.384Z,3.43
2023-04-10T06:02:10.738Z,3.57
2023-04-10T06:04:57.933Z,3.80
2023-04-10T06:07:44.839Z,3.67
2023-04-10T06:10:31.872Z,3.43
2023-04-10T06:13:19.400Z,3.50
2023-04-10T06:16:09.293Z,4.47
2023-04-10T06:18:58.979Z,3.60
2023-04-10T06:21:46.903Z,3.53
2023-04-10T06:24:33.816Z,3.93
2023-04-10T06:27:20.882Z,3.33
2023-04-10T06:30:09.584Z,2.40
2023-04-10T06:32:58.322Z,1.90
2023-04-10T06:35:45.675Z,1.80
2023-04-10T06:38:34.150Z,2.13
2023-04-10T06:41:21.091Z,2.67
2023-04-10T06:44:08.191Z,2.70
2023-04-10T06:46:55.582Z,2.90
2023-04-10T06:49:43.897Z,2.23
2023-04-10T06:52:31.138Z,2.20
2023-04-10T06:55:18.458Z,2.30
2023-04-10T06:58:05.145Z,2.00
2023-04-10T07:00:52.106Z,2.23
2023-04-10T07:03:39.343Z,2.13
2023-04-10T07:06:28.425Z,2.13
2023-04-10T07:09:15.717Z,2.07
2023-04-10T07:12:02.811Z,2.50
2023-04-10T07:14:49.994Z,2.42
2023-04-10T07:17:36.744Z,2.58
2023-04-10T07:20:23.723Z,2.67
2023-04-10T07:23:12.222Z,2.60
2023-04-10T07:25:59.360Z,2.40
2023-04-10T07:28:46.836Z,2.40
2023-04-10T07:31:34.445Z,2.80
2023-04-10T07:34:21.674Z,3.10
2023-04-10T07:37:09.641Z,2.90
2023-04-10T07:39:58.314Z,3.42
2023-04-10T07:42:45.061Z,2.58
2023-04-10T07:45:32.029Z,2.88
2023-04-10T07:48:19.147Z,3.28
2023-04-10T07:51:10.987Z,3.40
2023-04-10T07:53:57.828Z,3.22
2023-04-10T07:56:46.218Z,3.10
2023-04-10T07:59:33.366Z,3.50
2023-04-10T08:02:20.209Z,3.38
2023-04-10T08:05:07.901Z,3.67
2023-04-10T08:07:54.953Z,3.50
2023-04-10T08:10:41.885Z,2.85
2023-04-10T08:13:30.413Z,3.15
2023-04-10T08:16:17.491Z,3.03
2023-04-10T08:19:04.591Z,3.30
2023-04-10T08:21:51.623Z,2.78
2023-04-10T08:24:38.630Z,2.75
2023-04-10T08:27:25.582Z,3.13
2023-04-10T08:30:15.187Z,2.40
2023-04-10T08:33:02.135Z,3.17
2023-04-10T08:35:49.539Z,2.80
2023-04-10T08:38:36.306Z,2.75
2023-04-10T08:41:23.383Z,3.00
2023-04-10T08:44:10.274Z,2.85
2023-04-10T08:47:01.104Z,3.25
2023-04-10T08:49:52.443Z,2.80
2023-04-10T08:52:44.578Z,2.78
2023-04-10T08:55:31.330Z,2.58
2023-04-10T08:58:19.087Z,2.88
2023-04-10T09:01:08.177Z,2.92
2023-04-10T09:03:57.068Z,2.55
2023-04-10T09:06:44.262Z,2.80
2023-04-10T09:09:33.113Z,2.35
2023-04-10T09:12:20.285Z,2.65
2023-04-10T09:15:10.797Z,2.50
2023-04-10T09:17:59.800Z,2.50
2023-04-10T09:20:51.594Z,2.75
2023-04-10T09:23:38.336Z,2.25
2023-04-10T09:26:30.350Z,2.20
2023-04-10T09:29:17.977Z,2.60
2023-04-10T09:32:04.986Z,2.13
2023-04-10T09:34:57.299Z,2.17
2023-04-10T09:37:47.093Z,2.30
2023-04-10T09:40:33.939Z,2.50
2023-04-10T09:43:23.010Z,2.42
2023-04-10T09:46:10.028Z,2.00
2023-04-10T09:48:59.500Z,2.25
2023-04-10T09:51:47.456Z,2.10
2023-04-10T09:54:39.098Z,2.08
2023-04-10T09:57:27.880Z,1.92
2023-04-10T10:00:15.593Z,2.20
2023-04-10T10:03:06.218Z,2.30
2023-04-10T10:05:53.591Z,2.00
2023-04-10T10:08:41.376Z,2.08
2023-04-10T10:11:30.957Z,2.15
2023-04-10T10:14:21.520Z,2.15
2023-04-10T10:17:12.759Z,1.40
2023-04-10T10:20:03.978Z,1.98
2023-04-10T10:22:51.922Z,1.90
2023-04-10T10:25:40.191Z,1.73
2023-04-10T10:28:32.604Z,1.80
2023-04-10T10:31:20.464Z,1.60
2023-04-10T10:34:09.350Z,1.50
2023-04-10T10:36:56.193Z,1.30
2023-04-10T10:39:51.150Z,1.73
2023-04-10T10:42:43.864Z,1.60
2023-04-10T10:45:38.628Z,1.67
2023-04-10T10:48:25.406Z,1.48
2023-04-10T10:51:12.609Z,1.50
2023-04-10T10:53:59.255Z,1.50
2023-04-10T10:56:46.480Z,1.63
2023-04-10T10:59:56.766Z,1.77
2023-04-10T11:02:45.535Z,1.73
2023-04-10T11:05:57.442Z,1.55
2023-04-10T11:08:46.934Z,1.60
2023-04-10T11:12:00.628Z,1.63
2023-04-10T11:14:58.799Z,1.75
2023-04-10T11:17:52.126Z,1.77
2023-04-10T11:21:11.273Z,1.50
2023-04-10T11:24:07.570Z,1.80
2023-04-10T11:26:54.518Z,1.60
2023-04-10T11:29:41.479Z,1.40
2023-04-10T11:32:28.437Z,1.60
2023-04-10T11:35:20.414Z,1.80
2023-04-10T11:38:18.240Z,1.30
2023-04-10T11:41:06.968Z,1.63
2023-04-10T11:43:53.892Z,1.60
2023-04-10T11:46:46.860Z,1.50
2023-04-10T11:49:37.055Z,1.40
2023-04-10T11:52:27.842Z,1.40
2023-04-10T11:55:14.664Z,1.70
2023-04-10T11:58:01.598Z,1.58
2023-04-10T12:00:57.732Z,1.45
2023-04-10T12:03:46.134Z,1.50
2023-04-10T12:06:33.220Z,1.70
2023-04-10T12:09:22.715Z,1.70
2023-04-10T12:12:09.990Z,1.60
2023-04-10T12:14:56.842Z,1.58
2023-04-10T12:17:45.123Z,1.70
2023-04-10T12:20:32.515Z,1.83
2023-04-10T12:23:19.688Z,1.58
2023-04-10T12:26:13.998Z,1.70
2023-04-10T12:29:01.052Z,1.70
2023-04-10T12:31:48.253Z,1.38
2023-04-10T12:34:35.385Z,1.27
2023-04-10T12:37:22.189Z,1.52
2023-04-10T12:40:10.465Z,1.80
2023-04-10T12:42:58.826Z,1.80
2023-04-10T12:45:46.128Z,1.42
2023-04-10T12:48:33.287Z,1.40
2023-04-10T12:51:20.413Z,1.50
2023-04-10T12:54:07.423Z,1.70
2023-04-10T12:56:54.613Z,1.58
2023-04-10T12:59:45.103Z,1.80
2023-04-10T13:02:32.482Z,1.67
2023-04-10T13:08:22.706Z,1.60
2023-04-10T13:11:09.767Z,1.60
2023-04-10T13:13:56.668Z,1.63
2023-04-10T13:16:45.011Z,1.70
2023-04-10T13:19:33.141Z,1.38
2023-04-10T13:22:20.551Z,1.40
2023-04-10T13:25:08.116Z,1.58
2023-04-10T13:27:54.858Z,1.38
2023-04-10T13:30:43.263Z,1.27
2023-04-10T13:33:31.683Z,1.30
2023-04-10T13:36:19.018Z,1.10
2023-04-10T13:39:06.299Z,0.77
2023-04-10T13:41:53.365Z,0.85
2023-04-10T13:44:43.528Z,0.80
2023-04-10T13:47:30.655Z,0.68
2023-04-10T13:50:19.095Z,0.90
2023-04-10T13:53:07.751Z,0.95
2023-04-10T13:55:55.118Z,1.00
2023-04-10T13:58:42.149Z,0.90
2023-04-10T14:01:28.839Z,0.93
2023-04-10T14:04:16.028Z,1.10
2023-04-10T14:07:04.996Z,1.48
2023-04-10T14:09:52.189Z,1.73
2023-04-10T14:12:39.281Z,1.63
2023-04-10T14:15:28.996Z,1.58
2023-04-10T14:18:18.289Z,1.50
2023-04-10T14:21:05.389Z,1.77
2023-04-10T14:23:53.619Z,2.00
2023-04-10T14:26:40.588Z,1.70
2023-04-10T14:29:37.249Z,1.73
2023-04-10T14:32:28.069Z,1.80
2023-04-10T14:35:15.480Z,1.73
2023-04-10T14:38:02.499Z,1.60
2023-04-10T14:40:50.853Z,2.22
2023-04-10T14:43:38.637Z,1.58
2023-04-10T14:46:26.395Z,2.00
2023-04-10T14:49:15.657Z,1.90
2023-04-10T14:52:02.700Z,2.00
2023-04-10T14:54:49.717Z,2.00
2023-04-10T14:57:38.404Z,2.20
2023-04-10T15:00:26.404Z,2.17
2023-04-10T15:03:13.769Z,2.15
2023-04-10T15:06:01.461Z,1.80
2023-04-10T15:08:48.737Z,1.75
2023-04-10T15:11:35.648Z,1.73
2023-04-10T15:14:23.883Z,1.42
2023-04-10T15:17:11.167Z,1.73
2023-04-10T15:19:58.151Z,1.90
2023-04-10T15:22:45.559Z,1.77
2023-04-10T15:25:35.680Z,1.75
2023-04-10T15:28:22.887Z,1.77
2023-04-10T15:31:11.973Z,1.50
2023-04-10T15:33:59.380Z,1.70
2023-04-10T15:36:46.278Z,1.42
2023-04-10T15:39:33.276Z,1.70
2023-04-10T15:42:20.294Z,1.42
2023-04-10T15:45:11.998Z,1.45
2023-04-10T15:48:04.844Z,1.48
2023-04-10T15:50:55.011Z,2.00
2023-04-10T15:53:50.589Z,1.42
2023-04-10T15:56:41.051Z,1.50
2023-04-10T15:59:32.660Z,1.45
2023-04-10T16:02:19.576Z,1.67
2023-04-10T16:05:09.482Z,1.83
2023-04-10T16:07:56.843Z,1.80
2023-04-10T16:10:46.593Z,2.00
2023-04-10T16:13:33.896Z,1.80
2023-04-10T16:16:22.167Z,1.92
2023-04-10T16:19:09.951Z,2.10
2023-04-10T16:21:58.602Z,1.48
2023-04-10T16:24:46.168Z,1.90
2023-04-10T16:27:32.986Z,1.88
2023-04-10T16:30:20.014Z,1.98
2023-04-10T16:33:07.032Z,1.80
2023-04-10T16:35:54.556Z,1.52
2023-04-10T16:38:44.569Z,1.75
2023-04-10T16:41:31.768Z,1.90
2023-04-10T16:44:18.627Z,1.77
2023-04-10T16:47:05.514Z,1.80
2023-04-10T16:49:52.718Z,1.90
2023-04-10T16:52:39.974Z,1.95
2023-04-10T16:55:28.481Z,2.13
2023-04-10T16:58:15.662Z,1.70
2023-04-10T17:01:13.125Z,1.88
2023-04-10T17:04:00.189Z,1.92
2023-04-10T17:06:47.137Z,2.00
2023-04-10T17:09:34.103Z,1.75
2023-04-10T17:12:22.264Z,1.80
2023-04-10T17:15:10.178Z,1.70
2023-04-10T17:17:57.241Z,2.40
2023-04-10T17:20:44.861Z,1.83
2023-04-10T17:23:33.653Z,2.27
2023-04-10T17:26:23.246Z,2.03
2023-04-10T17:29:11.699Z,2.00
2023-04-10T17:31:58.603Z,1.67
2023-04-10T17:34:45.225Z,1.90
2023-04-10T17:37:32.007Z,1.70
2023-04-10T17:40:19.362Z,1.67
2023-04-10T17:43:06.506Z,1.80
2023-04-10T17:45:54.953Z,1.90
2023-04-10T17:48:42.309Z,2.00
2023-04-10T17:51:29.418Z,1.98
2023-04-10T17:54:16.506Z,1.80
2023-04-10T17:57:06.461Z,1.70
2023-04-10T17:59:53.549Z,2.07
2023-04-10T18:02:41.871Z,1.70
2023-04-10T18:05:29.131Z,1.80
2023-04-10T18:08:17.954Z,1.90
2023-04-10T18:11:04.896Z,1.80
2023-04-10T18:13:52.990Z,2.10
2023-04-10T18:16:39.869Z,2.10
2023-04-10T18:19:29.600Z,2.30
2023-04-10T18:22:16.905Z,2.37
2023-04-10T18:25:05.271Z,2.17
2023-04-10T18:28:13.123Z,2.07
2023-04-10T18:31:00.357Z,2.37
2023-04-10T18:33:56.227Z,2.30
2023-04-10T18:36:52.404Z,2.00
2023-04-10T18:39:39.601Z,2.23
2023-04-10T18:42:27.768Z,2.00
2023-04-10T18:45:14.489Z,2.20
2023-04-10T18:48:01.904Z,2.10
2023-04-10T18:50:54.296Z,2.20
2023-04-10T18:53:42.774Z,1.87
2023-04-10T18:56:29.824Z,1.77
2023-04-10T18:59:16.911Z,1.83
2023-04-10T19:02:04.598Z,2.07
2023-04-10T19:04:51.890Z,1.90
2023-04-10T19:07:40.641Z,1.97
2023-04-10T19:10:31.757Z,2.00
2023-04-10T19:13:18.556Z,2.13
2023-04-10T19:16:05.890Z,1.90
2023-04-10T19:18:54.726Z,1.70
2023-04-10T19:21:41.822Z,1.52
2023-04-10T19:24:29.173Z,1.70
2023-04-10T19:27:17.499Z,1.53
2023-04-10T19:30:04.745Z,1.40
2023-04-10T19:32:52.269Z,1.50
2023-04-10T19:35:39.051Z,1.40
2023-04-10T19:38:37.867Z,1.37
2023-04-10T19:41:26.341Z,1.17
2023-04-10T19:44:14.820Z,1.20
2023-04-10T19:47:02.042Z,1.20
2023-04-10T19:49:49.360Z,0.90
2023-04-10T19:52:36.223Z,1.23
2023-04-10T19:55:23.522Z,1.50
2023-04-10T19:58:17.059Z,1.20
2023-04-10T20:01:16.421Z,1.43
2023-04-10T20:04:05.531Z,1.10
2023-04-10T20:06:55.734Z,1.10
2023-04-10T20:09:43.224Z,0.90
2023-04-10T20:12:33.038Z,1.10
2023-04-10T20:15:21.315Z,1.40
2023-04-10T20:18:09.778Z,1.10
2023-04-10T20:20:58.534Z,1.40
2023-04-10T20:23:45.764Z,1.23
2023-04-10T20:26:32.489Z,1.03
2023-04-10T20:29:19.396Z,1.13
2023-04-10T20:32:08.277Z,1.20
2023-04-10T20:34:56.444Z,1.30
2023-04-10T20:37:43.568Z,1.30
2023-04-10T20:40:30.758Z,1.13
2023-04-10T20:43:18.798Z,1.30
2023-04-10T20:46:06.725Z,1.23
2023-04-10T20:48:55.212Z,1.40
2023-04-10T20:51:43.776Z,1.20
2023-04-10T20:54:31.216Z,1.00
2023-04-10T20:57:18.253Z,1.30
2023-04-10T21:00:06.751Z,0.90
2023-04-10T21:02:54.284Z,1.30
2023-04-10T21:05:42.224Z,1.10
2023-04-10T21:08:30.667Z,1.13
2023-04-10T21:11:19.757Z,1.13
2023-04-10T21:14:06.488Z,1.50
2023-04-10T21:16:53.592Z,1.37
2023-04-10T21:19:40.734Z,1.07
2023-04-10T21:22:29.355Z,1.17
2023-04-10T21:25:18.616Z,1.40
2023-04-10T21:28:05.902Z,1.13
2023-04-10T21:30:53.248Z,1.27
2023-04-10T21:33:40.228Z,1.10
2023-04-10T21:36:27.683Z,1.17
2023-04-10T21:39:14.571Z,1.30
2023-04-10T21:42:02.888Z,1.30
2023-04-10T21:44:50.177Z,1.30
2023-04-10T21:47:36.792Z,1.20
2023-04-10T21:50:23.512Z,1.40
2023-04-10T21:53:12.785Z,1.30
2023-04-10T21:56:00.049Z,1.50
2023-04-10T21:58:48.321Z,1.40
2023-04-10T22:01:36.032Z,1.33
2023-04-10T22:04:22.802Z,1.43
2023-04-10T22:07:12.139Z,1.50
2023-04-10T22:09:59.130Z,1.30
2023-04-10T22:12:48.433Z,1.50
2023-04-10T22:15:37.608Z,1.30
2023-04-10T22:18:24.719Z,1.37
2023-04-10T22:21:13.459Z,1.13
2023-04-10T22:24:00.137Z,1.37
2023-04-10T22:26:47.155Z,1.20
2023-04-10T22:29:35.081Z,1.63
2023-04-10T22:32:23.228Z,1.10
2023-04-10T22:35:10.330Z,1.20
2023-04-10T22:38:00.858Z,1.50
2023-04-10T22:40:47.891Z,1.10
2023-04-10T22:43:35.856Z,1.47
2023-04-10T22:46:22.933Z,1.60
2023-04-10T22:49:11.131Z,1.10
2023-04-10T22:51:58.302Z,1.27
2023-04-10T22:54:47.894Z,1.50
2023-04-10T22:57:35.105Z,1.00
2023-04-10T23:00:22.751Z,1.30
2023-04-10T23:03:10.224Z,1.40
2023-04-10T23:05:58.777Z,1.10
2023-04-10T23:08:45.861Z,1.10
2023-04-10T23:11:33.203Z,1.27
2023-04-10T23:14:19.833Z,1.40
2023-04-10T23:17:06.440Z,0.90
2023-04-10T23:19:53.392Z,1.07
2023-04-10T23:22:41.459Z,0.97
2023-04-10T23:25:28.537Z,1.73
2023-04-10T23:28:15.278Z,1.07
2023-04-10T23:31:02.350Z,1.07
2023-04-10T23:33:49.052Z,1.70
2023-04-10T23:36:36.044Z,1.43
2023-04-10T23:39:24.715Z,0.97
2023-04-10T23:42:12.159Z,1.10
2023-04-10T23:44:58.996Z,1.10
2023-04-10T23:47:45.996Z,1.27
2023-04-10T23:50:32.785Z,1.30
2023-04-10T23:53:20.040Z,1.13
2023-04-10T23:56:09.381Z,1.20
2023-04-10T23:58:57.075Z,1.20
